Terminal Aerodrome Forecast
Issued by NWS Duluth, MN

Home | Current Version | Previous Version | Text Only | Print | Product List | Glossary On
Versions: 1 2 3 4 5 6 7 8 9 10 11 12
043
FTUS43 KDLH 240525
TAFINL
TAF
KINL 240525Z 2406/2506 VRB04KT P6SM BKN250
     FM241200 16005KT P6SM VCSH OVC100
     FM241500 18005KT P6SM BKN200
     FM241800 19009G19KT P6SM OVC250
     FM250200 21008KT P6SM VCSH BKN050=

USA.gov is the U.S. government's official web portal to all federal, state and local government web resources and services.